Time;durP1;ratioP1;P1;durP2;ratioP2;P2;SDS_P1;SDS_P2;PMS_P1;PMS_P2;Temp;Humidity;BMP_temperature;BMP_pressure;BME280_temperature;BME280_humidity;BME280_pressure;Samples;Min_cycle;Max_cycle;Signal;HPM_P1;HPM_P2
2023/12/04 00:01:12;;;;;;;;;3.00;3.00;;;;;1.21;78.69;99749.69;5046563;28;8852;-91
2023/12/04 00:03:40;;;;;;;;;5.80;5.20;;;;;1.22;78.47;99754.84;5053309;28;8859;-90
2023/12/04 00:06:07;;;;;;;;;4.20;3.80;;;;;1.25;78.30;99751.25;5044840;28;8860;-92
2023/12/04 00:08:35;;;;;;;;;6.00;5.60;;;;;1.27;78.22;99745.03;5036840;28;8840;-93
2023/12/04 00:11:03;;;;;;;;;4.40;3.60;;;;;1.29;77.96;99737.94;5037144;28;8949;-92
2023/12/04 00:13:31;;;;;;;;;4.80;4.00;;;;;1.31;77.33;99728.22;5036611;28;8828;-92
2023/12/04 00:15:59;;;;;;;;;3.80;3.00;;;;;1.32;78.08;99732.56;5036356;28;8856;-92
2023/12/04 00:18:27;;;;;;;;;5.60;4.40;;;;;1.33;77.38;99731.63;5037281;28;8832;-93
2023/12/04 00:20:54;;;;;;;;;5.60;4.40;;;;;1.35;77.29;99726.28;5036566;28;8866;-93
2023/12/04 00:23:22;;;;;;;;;0.20;0.20;;;;;1.33;77.43;99721.16;5036742;28;8934;-93
2023/12/04 00:25:50;;;;;;;;;6.60;6.20;;;;;1.34;77.80;99714.09;5036267;28;8882;-92
2023/12/04 00:28:17;;;;;;;;;3.00;3.00;;;;;1.33;77.64;99709.78;5036465;28;8875;-92
2023/12/04 00:30:45;;;;;;;;;6.00;4.40;;;;;1.33;77.24;99713.28;5036179;28;8829;-92
2023/12/04 00:33:13;;;;;;;;;5.20;4.40;;;;;1.36;77.52;99707.88;5036541;28;8841;-91
2023/12/04 00:35:41;;;;;;;;;6.60;6.00;;;;;1.37;77.52;99709.56;5036759;28;8967;-93
2023/12/04 00:38:09;;;;;;;;;5.60;5.20;;;;;1.38;77.53;99703.41;5036905;28;8987;-92
2023/12/04 00:40:37;;;;;;;;;4.20;4.20;;;;;1.41;77.08;99703.28;5036832;28;9521;-92
2023/12/04 00:43:04;;;;;;;;;3.20;3.20;;;;;1.42;77.07;99707.59;5036259;28;8891;-91
2023/12/04 00:45:32;;;;;;;;;6.40;6.40;;;;;1.45;77.27;99699.56;5036377;28;8844;-93
2023/12/04 00:48:00;;;;;;;;;2.60;2.60;;;;;1.50;76.84;99699.34;5035833;28;8852;-92
2023/12/04 00:50:28;;;;;;;;;2.20;2.20;;;;;1.53;77.00;99693.97;5036226;28;8910;-90
2023/12/04 00:52:56;;;;;;;;;6.40;6.20;;;;;1.57;77.10;99700.78;5036340;28;8925;-93
2023/12/04 00:55:24;;;;;;;;;3.00;3.00;;;;;1.61;76.13;99686.59;5036228;28;8868;-94
2023/12/04 00:57:52;;;;;;;;;4.00;3.00;;;;;1.66;76.50;99684.63;5035189;28;8856;-93
2023/12/04 01:00:19;;;;;;;;;6.20;3.80;;;;;1.69;75.79;99687.94;5034413;28;8867;-91
2023/12/04 01:02:47;;;;;;;;;4.60;4.60;;;;;1.73;75.75;99688.63;5035708;28;9556;-91
2023/12/04 01:05:15;;;;;;;;;3.00;1.00;;;;;1.77;75.47;99698.91;5035826;28;8829;-91
2023/12/04 01:07:42;;;;;;;;;3.60;3.60;;;;;1.80;76.00;99688.25;5035268;28;8842;-92
2023/12/04 01:10:10;;;;;;;;;5.20;3.80;;;;;1.81;75.96;99687.34;5036151;28;8845;-92
2023/12/04 01:12:38;;;;;;;;;3.00;3.00;;;;;1.85;75.27;99674.91;5035976;28;8898;-92
2023/12/04 01:15:05;;;;;;;;;3.20;1.80;;;;;1.89;75.49;99679.94;5035934;28;8820;-92
2023/12/04 01:17:33;;;;;;;;;3.80;3.00;;;;;1.90;75.58;99668.50;5035883;28;8850;-91
2023/12/04 01:20:01;;;;;;;;;4.40;4.00;;;;;1.92;75.05;99664.06;5036222;28;8848;-91
2023/12/04 01:22:29;;;;;;;;;1.00;1.00;;;;;1.94;75.47;99661.34;5035683;28;8857;-91
2023/12/04 01:24:56;;;;;;;;;4.00;3.60;;;;;1.95;75.47;99665.66;5040463;28;8858;-91
2023/12/04 01:27:24;;;;;;;;;3.00;3.00;;;;;1.95;75.59;99661.25;5039550;28;8845;-91
2023/12/04 01:29:52;;;;;;;;;5.20;4.40;;;;;1.96;75.17;99662.97;5039409;28;8848;-91
2023/12/04 01:32:19;;;;;;;;;5.60;5.60;;;;;1.96;75.01;99665.59;5039382;28;9560;-91
2023/12/04 01:34:47;;;;;;;;;3.00;3.00;;;;;1.97;75.08;99656.78;5039537;28;8848;-91
2023/12/04 01:37:15;;;;;;;;;3.60;3.20;;;;;1.98;75.45;99655.03;5039448;28;8844;-91
2023/12/04 01:39:42;;;;;;;;;6.60;5.20;;;;;2.00;75.48;99648.78;5039663;28;8856;-91
2023/12/04 01:42:10;;;;;;;;;3.60;3.20;;;;;2.02;74.94;99649.53;5039810;28;8840;-92
2023/12/04 01:44:38;;;;;;;;;4.60;4.60;;;;;2.04;74.97;99637.19;5038996;28;8848;-91
2023/12/04 01:47:07;;;;;;;;;4.40;3.40;;;;;2.06;75.31;99643.19;5038964;28;8862;-91
2023/12/04 01:49:34;;;;;;;;;6.00;6.00;;;;;2.07;75.24;99639.66;5039179;28;8840;-92
2023/12/04 01:52:02;;;;;;;;;4.00;4.00;;;;;2.11;74.31;99633.31;5038497;28;8845;-91
2023/12/04 01:54:30;;;;;;;;;3.00;3.00;;;;;2.13;74.54;99623.56;5039012;28;8983;-91
2023/12/04 01:56:58;;;;;;;;;4.40;4.00;;;;;2.15;74.42;99627.00;5039413;28;8848;-91
2023/12/04 01:59:25;;;;;;;;;3.40;3.20;;;;;2.15;74.47;99627.00;5039918;28;8829;-92
2023/12/04 02:01:54;;;;;;;;;7.40;5.60;;;;;2.18;74.09;99626.81;5038500;28;8829;-91
2023/12/04 02:04:23;;;;;;;;;3.00;2.20;;;;;2.19;74.29;99623.28;5038572;28;8870;-91
2023/12/04 02:06:50;;;;;;;;;3.00;3.00;;;;;2.19;73.93;99623.28;5038485;28;8921;-91
2023/12/04 02:09:18;;;;;;;;;2.20;2.20;;;;;2.18;74.02;99616.31;5038075;28;8845;-91
2023/12/04 02:11:46;;;;;;;;;1.00;1.00;;;;;2.18;74.05;99620.72;5036835;28;8903;-91
2023/12/04 02:14:13;;;;;;;;;3.20;2.60;;;;;2.18;74.30;99625.97;5036554;28;8855;-92
2023/12/04 02:16:41;;;;;;;;;0.80;0.80;;;;;2.19;73.89;99619.81;5037592;28;8858;-91
2023/12/04 02:19:09;;;;;;;;;0.00;0.00;;;;;2.18;73.99;99618.94;5037953;28;8884;-91
2023/12/04 02:21:37;;;;;;;;;3.20;3.00;;;;;2.17;73.87;99624.28;5037642;28;8859;-91
2023/12/04 02:24:04;;;;;;;;;3.00;1.00;;;;;2.15;74.40;99623.50;5037801;28;8853;-91
2023/12/04 02:26:32;;;;;;;;;3.00;3.00;;;;;2.13;74.73;99615.69;5038191;28;8926;-91
2023/12/04 02:29:00;;;;;;;;;2.20;2.20;;;;;2.13;74.30;99622.75;5036931;28;8837;-91
2023/12/04 02:31:28;;;;;;;;;2.20;1.40;;;;;2.16;75.19;99620.81;5037750;28;9002;-91
2023/12/04 02:33:56;;;;;;;;;3.00;2.20;;;;;2.19;74.25;99619.81;5038020;28;8856;-91
2023/12/04 02:36:24;;;;;;;;;1.00;1.00;;;;;2.21;74.88;99616.16;5037649;28;8904;-91
2023/12/04 02:38:51;;;;;;;;;3.00;3.00;;;;;2.20;74.49;99622.34;5039036;28;8848;-91
2023/12/04 02:41:19;;;;;;;;;3.00;2.60;;;;;2.20;74.38;99617.09;5038960;28;8860;-91
2023/12/04 02:43:46;;;;;;;;;1.80;1.40;;;;;2.21;74.38;99621.41;5037993;28;8857;-91
2023/12/04 02:46:14;;;;;;;;;2.60;2.60;;;;;2.23;74.72;99602.97;5037954;28;8959;-92
2023/12/04 02:48:42;;;;;;;;;3.00;3.00;;;;;2.29;73.85;99603.47;5036744;28;8859;-91
2023/12/04 02:51:10;;;;;;;;;1.00;1.00;;;;;2.32;73.99;99598.09;5036788;28;8844;-91
2023/12/04 02:53:38;;;;;;;;;3.00;3.00;;;;;2.35;74.43;99597.91;5037463;28;8875;-91
2023/12/04 02:56:05;;;;;;;;;0.80;0.80;;;;;2.37;73.94;99593.44;5045171;28;8837;-91
2023/12/04 02:58:34;;;;;;;;;3.40;3.00;;;;;2.39;74.35;99583.69;5053920;28;8816;-90
2023/12/04 03:01:02;;;;;;;;;1.00;1.00;;;;;2.42;73.64;99570.38;5051582;28;8832;-91
2023/12/04 03:03:30;;;;;;;;;1.00;1.00;;;;;2.43;73.19;99569.47;5043026;28;8898;-92
2023/12/04 03:05:57;;;;;;;;;1.80;1.00;;;;;2.43;73.18;99574.72;5038330;28;8929;-91
2023/12/04 03:08:25;;;;;;;;;2.20;1.80;;;;;2.43;73.31;99569.47;5037314;28;8926;-91
2023/12/04 03:10:53;;;;;;;;;3.00;3.00;;;;;2.41;72.50;99560.00;5037904;28;8833;-92
2023/12/04 03:13:20;;;;;;;;;3.00;3.00;;;;;2.39;72.77;99562.69;5038247;28;8860;-92
2023/12/04 03:15:48;;;;;;;;;1.00;1.00;;;;;2.38;72.16;99555.75;5037870;28;9185;-90
2023/12/04 03:18:16;;;;;;;;;4.00;4.00;;;;;2.39;72.52;99562.69;5037903;28;8856;-92
2023/12/04 03:20:44;;;;;;;;;2.60;2.60;;;;;2.42;71.93;99562.50;5036916;28;8832;-90
2023/12/04 03:23:11;;;;;;;;;1.00;1.00;;;;;2.42;71.80;99552.00;5037388;28;8856;-91
2023/12/04 03:25:39;;;;;;;;;3.60;2.20;;;;;2.41;72.10;99545.06;5037446;28;8983;-91
2023/12/04 03:28:07;;;;;;;;;1.00;1.00;;;;;2.41;71.79;99539.81;5037733;28;8875;-92
2023/12/04 03:30:34;;;;;;;;;4.00;4.00;;;;;2.40;71.24;99546.00;5037612;28;8918;-92
2023/12/04 03:33:02;;;;;;;;;1.80;1.00;;;;;2.39;71.49;99536.41;5037781;28;8880;-92
2023/12/04 03:35:30;;;;;;;;;3.00;1.00;;;;;2.40;70.84;99535.47;5037914;28;8836;-91
2023/12/04 03:37:58;;;;;;;;;3.80;3.80;;;;;2.39;71.07;99525.06;5037653;28;8849;-91
2023/12/04 03:40:25;;;;;;;;;4.20;3.00;;;;;2.38;70.49;99534.72;5036591;28;8860;-91
2023/12/04 03:42:53;;;;;;;;;4.00;3.00;;;;;2.38;70.89;99525.97;5036330;28;8833;-91
2023/12/04 03:45:21;;;;;;;;;1.80;1.80;;;;;2.39;70.63;99525.91;5035986;28;8825;-91
2023/12/04 03:47:48;;;;;;;;;2.20;2.20;;;;;2.42;70.87;99519.66;5037129;28;8871;-91
2023/12/04 03:50:16;;;;;;;;;2.20;2.20;;;;;2.42;71.01;99525.72;5037287;28;8922;-92
2023/12/04 03:52:44;;;;;;;;;0.80;0.80;;;;;2.44;70.67;99523.03;5037516;28;8844;-91
2023/12/04 03:55:11;;;;;;;;;1.00;1.00;;;;;2.45;70.34;99522.97;5035963;28;8845;-91
2023/12/04 03:57:39;;;;;;;;;2.60;1.00;;;;;2.44;70.41;99515.97;5036392;28;8878;-91
2023/12/04 04:00:07;;;;;;;;;4.00;3.00;;;;;2.45;70.72;99517.72;5036021;28;8828;-91
2023/12/04 04:02:35;;;;;;;;;0.00;0.00;;;;;2.48;70.08;99508.78;5036176;28;8852;-91
2023/12/04 04:05:02;;;;;;;;;4.00;4.00;;;;;2.49;70.19;99506.09;5037143;28;8894;-93
2023/12/04 04:07:31;;;;;;;;;4.40;3.00;;;;;2.51;69.18;99509.47;5035669;28;8824;-92
2023/12/04 04:09:58;;;;;;;;;2.20;2.20;;;;;2.51;68.92;99501.59;5035944;28;8840;-91
2023/12/04 04:12:26;;;;;;;;;3.00;3.00;;;;;2.53;69.22;99502.38;5036478;28;8832;-91
2023/12/04 04:14:54;;;;;;;;;3.00;3.00;;;;;2.54;68.93;99504.06;5035663;28;9487;-91
2023/12/04 04:17:22;;;;;;;;;4.20;4.20;;;;;2.54;69.00;99513.72;5035683;28;8998;-92
2023/12/04 04:19:49;;;;;;;;;3.60;3.60;;;;;2.54;68.92;99509.31;5036478;28;8840;-92
2023/12/04 04:22:17;;;;;;;;;3.00;3.00;;;;;2.53;68.65;99502.38;5035932;28;8836;-91
2023/12/04 04:24:45;;;;;;;;;3.00;3.00;;;;;2.53;68.34;99494.50;5036374;28;8836;-91
2023/12/04 04:27:12;;;;;;;;;3.00;1.00;;;;;2.51;69.28;99496.34;5035805;28;8852;-90
2023/12/04 04:29:40;;;;;;;;;2.60;1.80;;;;;2.51;69.45;99493.72;5035100;28;8832;-90
2023/12/04 04:32:08;;;;;;;;;3.00;3.00;;;;;2.51;68.60;99491.06;5035229;28;9492;-91
2023/12/04 04:34:38;;;;;;;;;1.40;1.00;;;;;2.49;69.11;99489.50;5036102;28;8898;-91
2023/12/04 04:37:06;;;;;;;;;4.00;3.80;;;;;2.46;69.02;99487.88;5036004;28;8976;-91
2023/12/04 04:39:33;;;;;;;;;0.00;0.00;;;;;2.43;69.53;99479.31;5035940;28;9605;-90
2023/12/04 04:42:02;;;;;;;;;1.40;1.40;;;;;2.41;69.09;99481.19;5036229;28;8841;-91
2023/12/04 04:44:29;;;;;;;;;2.40;2.20;;;;;2.38;68.98;99476.06;5035510;28;8863;-91
2023/12/04 04:46:57;;;;;;;;;0.80;0.80;;;;;2.34;68.81;99471.94;5036588;28;8848;-91
2023/12/04 04:49:25;;;;;;;;;1.20;0.60;;;;;2.29;69.45;99477.41;5035083;28;8848;-91
2023/12/04 04:51:52;;;;;;;;;2.60;2.60;;;;;2.26;69.28;99474.97;5035141;28;8848;-91
2023/12/04 04:54:20;;;;;;;;;1.00;1.00;;;;;2.25;69.22;99468.00;5035203;28;8860;-91
2023/12/04 04:56:48;;;;;;;;;3.00;3.00;;;;;2.24;68.98;99453.19;5035375;28;8829;-91
2023/12/04 04:59:16;;;;;;;;;4.00;4.00;;;;;2.23;69.24;99467.25;5035378;28;8867;-91
2023/12/04 05:01:43;;;;;;;;;1.20;1.20;;;;;2.22;69.05;99470.81;5035176;28;9494;-90
2023/12/04 05:04:11;;;;;;;;;4.00;3.00;;;;;2.22;69.45;99464.69;5035573;28;8841;-91
2023/12/04 05:06:39;;;;;;;;;1.00;1.00;;;;;2.25;68.96;99470.63;5034507;28;8833;-91
2023/12/04 05:09:07;;;;;;;;;1.00;1.00;;;;;2.24;69.49;99476.81;5013627;28;8885;-90
2023/12/04 05:11:34;;;;;;;;;1.00;0.00;;;;;2.23;69.03;99471.66;5014869;28;8865;-91
2023/12/04 05:14:02;;;;;;;;;3.20;3.00;;;;;2.21;69.71;99466.47;5015829;28;8859;-91
2023/12/04 05:16:30;;;;;;;;;0.60;0.00;;;;;2.20;69.66;99464.78;5016231;28;8847;-91
2023/12/04 05:18:57;;;;;;;;;1.00;1.00;;;;;2.21;68.92;99458.59;5015940;28;8851;-90
2023/12/04 05:21:26;;;;;;;;;3.20;2.60;;;;;2.21;69.71;99463.00;5015512;28;8875;-91
2023/12/04 05:23:54;;;;;;;;;0.00;0.00;;;;;2.22;69.82;99454.19;5016102;28;8859;-90
2023/12/04 05:26:21;;;;;;;;;4.00;3.80;;;;;2.22;69.43;99443.69;5016585;28;8842;-91
2023/12/04 05:28:49;;;;;;;;;3.00;2.60;;;;;2.21;69.46;99440.22;5014418;28;8835;-91
2023/12/04 05:31:17;;;;;;;;;1.00;0.40;;;;;2.19;69.91;99438.63;5015856;28;8842;-90
2023/12/04 05:33:45;;;;;;;;;1.40;0.80;;;;;2.17;70.59;99451.81;5016063;28;9324;-91
2023/12/04 05:36:13;;;;;;;;;4.20;3.80;;;;;2.15;70.56;99437.94;5015378;28;8920;-92
2023/12/04 05:38:40;;;;;;;;;2.60;1.00;;;;;2.13;70.47;99429.28;5013817;28;8886;-90
2023/12/04 05:41:08;;;;;;;;;2.80;1.80;;;;;2.14;70.57;99424.88;5015077;28;8854;-91
2023/12/04 05:43:36;;;;;;;;;1.00;1.00;;;;;2.16;70.44;99431.75;5014166;28;8981;-90
2023/12/04 05:46:03;;;;;;;;;1.00;1.00;;;;;2.18;70.11;99427.25;5014434;28;8851;-90
2023/12/04 05:48:31;;;;;;;;;0.60;0.00;;;;;2.20;70.50;99424.56;5013953;28;8920;-90
2023/12/04 05:50:59;;;;;;;;;3.00;3.00;;;;;2.21;70.36;99421.81;5015131;28;8842;-90
2023/12/04 05:53:26;;;;;;;;;1.80;1.00;;;;;2.21;70.35;99426.25;5015873;28;8977;-90
2023/12/04 05:55:54;;;;;;;;;6.60;6.60;;;;;2.21;70.44;99416.56;5014251;28;8861;-91
2023/12/04 05:58:22;;;;;;;;;2.20;1.00;;;;;2.21;70.20;99413.13;5013585;28;8854;-90
2023/12/04 06:00:50;;;;;;;;;6.20;5.20;;;;;2.23;70.24;99411.25;5013660;28;8877;-90
2023/12/04 06:03:17;;;;;;;;;2.60;2.60;;;;;2.22;69.84;99413.03;5013459;28;8846;-90
2023/12/04 06:05:46;;;;;;;;;3.00;3.00;;;;;2.21;70.35;99406.06;5012248;28;8917;-91
2023/12/04 06:08:13;;;;;;;;;1.40;1.00;;;;;2.21;70.41;99405.25;5025754;28;8836;-91
2023/12/04 06:10:41;;;;;;;;;0.00;0.00;;;;;2.19;70.11;99405.31;5035766;28;8994;-91
2023/12/04 06:13:09;;;;;;;;;0.80;0.80;;;;;2.19;70.33;99399.22;5037712;28;8849;-90
2023/12/04 06:15:37;;;;;;;;;4.00;3.80;;;;;2.17;70.49;99409.81;5037527;28;9601;-91
2023/12/04 06:18:06;;;;;;;;;2.20;1.40;;;;;2.17;70.66;99414.19;5038752;28;8861;-92
2023/12/04 06:20:33;;;;;;;;;1.00;0.60;;;;;2.19;70.82;99417.63;5039142;28;8845;-91
2023/12/04 06:23:01;;;;;;;;;1.40;1.40;;;;;2.18;70.27;99419.38;5038848;28;8857;-91
2023/12/04 06:25:29;;;;;;;;;1.80;1.80;;;;;2.17;70.42;99412.44;5037185;28;8841;-91
2023/12/04 06:27:57;;;;;;;;;4.00;3.60;;;;;2.19;70.80;99405.31;5037106;28;8857;-90
2023/12/04 06:30:24;;;;;;;;;1.00;1.00;;;;;2.22;70.67;99402.53;5036877;28;8856;-91
2023/12/04 06:32:52;;;;;;;;;0.80;0.80;;;;;2.26;69.98;99409.31;5036729;28;8859;-91
2023/12/04 06:35:20;;;;;;;;;1.40;1.00;;;;;2.29;69.87;99405.66;5037461;28;8857;-91
2023/12/04 06:37:48;;;;;;;;;1.40;1.40;;;;;2.30;70.41;99400.34;5037109;28;8863;-91
2023/12/04 06:40:15;;;;;;;;;2.20;1.60;;;;;2.30;70.06;99402.97;5036693;28;9012;-91
2023/12/04 06:42:43;;;;;;;;;2.60;2.60;;;;;2.30;69.79;99399.47;5035029;28;8875;-91
2023/12/04 06:45:11;;;;;;;;;1.00;0.00;;;;;2.31;70.25;99401.16;5041838;28;8861;-91
2023/12/04 06:47:38;;;;;;;;;1.40;1.40;;;;;2.33;69.93;99399.28;5054341;28;9096;-91
2023/12/04 06:50:07;;;;;;;;;2.40;0.80;;;;;2.33;70.05;99389.66;5049969;28;8864;-91
2023/12/04 06:52:34;;;;;;;;;0.00;0.00;;;;;2.33;70.28;99389.66;5034991;28;8875;-91
2023/12/04 06:55:02;;;;;;;;;1.00;1.00;;;;;2.34;70.22;99380.84;5034038;28;8883;-91
2023/12/04 06:57:30;;;;;;;;;1.00;1.00;;;;;2.34;70.29;99380.00;5033846;28;8857;-91
2023/12/04 06:59:58;;;;;;;;;1.00;1.00;;;;;2.34;69.71;99369.50;5033501;28;8895;-91
2023/12/04 07:02:26;;;;;;;;;1.40;1.00;;;;;2.34;69.95;99364.25;5033494;28;8868;-91
2023/12/04 07:04:54;;;;;;;;;3.00;1.00;;;;;2.32;70.52;99359.06;5033698;28;8898;-91
2023/12/04 07:07:21;;;;;;;;;1.00;1.00;;;;;2.37;70.11;99351.78;5034004;28;8869;-91
2023/12/04 07:09:49;;;;;;;;;1.40;1.00;;;;;2.41;68.98;99360.34;5033305;28;9557;-91
2023/12/04 07:12:17;;;;;;;;;1.00;1.00;;;;;2.42;69.37;99357.59;5033441;28;8852;-91
2023/12/04 07:14:45;;;;;;;;;3.00;1.80;;;;;2.43;69.61;99354.03;5047684;28;8845;-91
2023/12/04 07:17:12;;;;;;;;;0.00;0.00;;;;;2.44;69.62;99342.59;5074282;28;8862;-91
2023/12/04 07:19:40;;;;;;;;;0.60;0.60;;;;;2.44;69.58;99337.34;5075107;28;8852;-91
2023/12/04 07:22:08;;;;;;;;;1.00;1.00;;;;;2.47;69.37;99339.81;5075115;28;8847;-91
2023/12/04 07:24:35;;;;;;;;;1.00;0.60;;;;;2.49;69.07;99337.13;5080813;28;9155;-90
2023/12/04 07:27:03;;;;;;;;;0.80;0.80;;;;;2.49;69.18;99327.44;5089301;28;8886;-90
2023/12/04 07:29:31;;;;;;;;;1.00;1.00;;;;;2.51;68.92;99328.19;5082237;28;9533;-91
2023/12/04 07:31:59;;;;;;;;;1.80;1.00;;;;;2.54;68.54;99330.66;5076626;28;8851;-91
2023/12/04 07:34:28;;;;;;;;;1.40;1.00;;;;;2.55;67.88;99326.22;5076781;28;8917;-91
2023/12/04 07:36:56;;;;;;;;;3.00;1.00;;;;;2.56;68.26;99327.94;5076594;28;8858;-92
2023/12/04 07:39:24;;;;;;;;;0.40;0.40;;;;;2.56;67.97;99320.91;5076607;28;8876;-91
2023/12/04 07:41:52;;;;;;;;;2.60;1.80;;;;;2.57;67.80;99324.38;5076746;28;8839;-91
2023/12/04 07:44:20;;;;;;;;;0.00;0.00;;;;;2.56;68.11;99313.00;5077089;28;8852;-91
2023/12/04 07:46:48;;;;;;;;;1.40;1.00;;;;;2.56;68.17;99315.66;5075857;28;8840;-91
2023/12/04 07:49:16;;;;;;;;;0.00;0.00;;;;;2.56;68.67;99313.00;5075613;28;8833;-91
2023/12/04 07:51:44;;;;;;;;;1.00;1.00;;;;;2.55;68.33;99306.06;5075093;28;8852;-91
2023/12/04 07:54:12;;;;;;;;;2.80;2.80;;;;;2.56;68.12;99302.50;5074387;28;8828;-91
2023/12/04 07:56:40;;;;;;;;;1.00;0.00;;;;;2.57;68.81;99295.50;5075379;28;8875;-91
2023/12/04 07:59:07;;;;;;;;;1.00;1.00;;;;;2.56;68.89;99294.63;5075046;28;8848;-91
2023/12/04 08:01:36;;;;;;;;;0.40;0.40;;;;;2.57;69.16;99288.44;5075343;28;8883;-91
2023/12/04 08:04:04;;;;;;;;;1.00;1.00;;;;;2.59;68.96;99290.97;5074628;28;8836;-91
2023/12/04 08:06:32;;;;;;;;;1.00;1.00;;;;;2.60;69.00;99297.91;5073847;28;8844;-91
2023/12/04 08:09:01;;;;;;;;;3.60;3.60;;;;;2.62;68.73;99281.13;5053446;28;8846;-91
2023/12/04 08:11:29;;;;;;;;;1.00;1.00;;;;;2.64;68.35;99279.25;5053665;28;8977;-91
2023/12/04 08:13:56;;;;;;;;;3.60;3.60;;;;;2.67;68.30;99281.72;5054027;28;8846;-91
2023/12/04 08:16:24;;;;;;;;;0.80;0.80;;;;;2.69;69.02;99277.22;5054805;28;8858;-91
2023/12/04 08:18:52;;;;;;;;;1.00;1.00;;;;;2.70;68.69;99271.03;5054845;28;8858;-91
2023/12/04 08:21:20;;;;;;;;;1.00;1.00;;;;;2.73;68.78;99265.56;5055067;28;8866;-91
2023/12/04 08:23:48;;;;;;;;;2.20;2.20;;;;;2.75;68.65;99268.97;5055410;28;8846;-91
2023/12/04 08:26:16;;;;;;;;;0.40;0.40;;;;;2.80;68.38;99274.78;5054793;28;8862;-91
2023/12/04 08:28:44;;;;;;;;;1.00;1.00;;;;;2.83;68.45;99277.25;5053300;28;8915;-91
2023/12/04 08:31:12;;;;;;;;;3.00;1.80;;;;;2.87;67.94;99272.66;5053361;28;8845;-91
2023/12/04 08:33:39;;;;;;;;;2.60;2.60;;;;;2.92;68.60;99276.72;5052199;28;9531;-92
2023/12/04 08:36:07;;;;;;;;;1.00;1.00;;;;;2.95;68.39;99258.09;5053969;28;8857;-92
2023/12/04 08:38:36;;;;;;;;;1.40;1.40;;;;;2.98;68.15;99257.09;5052488;28;8925;-91
2023/12/04 08:41:04;;;;;;;;;3.40;2.60;;;;;3.01;68.14;99256.88;5053141;28;8878;-91
2023/12/04 08:43:31;;;;;;;;;1.00;0.60;;;;;3.03;68.34;99260.28;5053656;28;8873;-91
2023/12/04 08:46:00;;;;;;;;;3.60;3.20;;;;;3.04;68.19;99254.09;5053815;28;8965;-91
2023/12/04 08:48:28;;;;;;;;;1.40;1.00;;;;;3.04;67.83;99251.47;5053579;28;8850;-92
2023/12/04 08:50:56;;;;;;;;;0.80;0.80;;;;;3.07;68.31;99252.13;5054983;28;8838;-91
2023/12/04 08:53:24;;;;;;;;;2.20;1.00;;;;;3.08;68.08;99263.47;5054267;28;8858;-91
2023/12/04 08:55:52;;;;;;;;;1.00;0.40;;;;;3.08;68.06;99253.81;5053978;28;8956;-91
2023/12/04 08:58:20;;;;;;;;;1.00;0.20;;;;;3.08;68.19;99251.19;5056028;28;8932;-91
2023/12/04 09:00:56;;;;;;;;;0.80;0.80;;;;;3.10;68.50;99259.00;5056681;28;8850;-91
2023/12/04 09:03:25;;;;;;;;;2.00;2.00;;;;;3.13;68.17;99254.38;5055254;28;8854;-91
2023/12/04 09:05:59;;;;;;;;;0.40;0.40;;;;;3.17;67.95;99245.34;5054422;28;8909;-91
2023/12/04 09:08:27;;;;;;;;;1.00;1.00;;;;;3.20;67.60;99253.09;5055319;28;9508;-91
2023/12/04 09:11:05;;;;;;;;;1.60;0.60;;;;;3.24;67.65;99248.47;5054776;28;8834;-91
2023/12/04 09:13:50;;;;;;;;;0.80;0.80;;;;;3.28;67.23;99255.22;5055062;28;9516;-92
2023/12/04 09:16:18;;;;;;;;;0.00;0.00;;;;;3.31;67.03;99250.63;5035496;28;8926;-91
2023/12/04 09:18:47;;;;;;;;;1.40;1.40;;;;;3.32;67.14;99236.53;5035317;28;8836;-91
2023/12/04 09:21:16;;;;;;;;;1.00;1.00;;;;;3.35;66.81;99241.63;5034455;28;8852;-91
2023/12/04 09:23:49;;;;;;;;;0.00;0.00;;;;;3.35;66.38;99231.09;5035363;28;8880;-90
2023/12/04 09:26:18;;;;;;;;;1.00;1.00;;;;;3.36;66.20;99231.91;5033771;28;8844;-91
2023/12/04 09:28:46;;;;;;;;;0.60;0.60;;;;;3.35;65.19;99231.09;5033931;28;9037;-91
2023/12/04 09:31:14;;;;;;;;;1.00;1.00;;;;;3.34;66.15;99234.63;5034212;28;8911;-92
2023/12/04 09:33:42;;;;;;;;;0.00;0.00;;;;;3.34;65.59;99221.47;5034339;28;8914;-91
2023/12/04 09:36:10;;;;;;;;;0.20;0.20;;;;;3.35;64.83;99230.25;5033587;28;8861;-91
2023/12/04 09:38:38;;;;;;;;;1.80;1.80;;;;;3.35;65.44;99224.97;5033751;28;8848;-91
2023/12/04 09:41:06;;;;;;;;;1.00;0.20;;;;;3.35;65.39;99220.56;5033552;28;8840;-91
2023/12/04 09:43:34;;;;;;;;;2.60;0.80;;;;;3.35;65.69;99220.56;5033641;28;8868;-91
2023/12/04 09:46:02;;;;;;;;;0.40;0.40;;;;;3.37;65.33;99216.06;5037092;28;8864;-91
2023/12/04 09:48:30;;;;;;;;;1.00;1.00;;;;;3.39;65.54;99215.97;5037031;28;8834;-91
2023/12/04 09:50:58;;;;;;;;;1.00;1.00;;;;;3.41;64.99;99209.63;5037186;28;8860;-91
2023/12/04 09:53:26;;;;;;;;;3.80;3.00;;;;;3.41;65.29;99207.00;5037093;28;8988;-91
2023/12/04 09:55:56;;;;;;;;;0.00;0.00;;;;;3.42;65.20;99200.81;5037433;28;8885;-92
2023/12/04 09:58:23;;;;;;;;;1.00;1.00;;;;;3.45;65.10;99191.88;5037616;28;8853;-91
2023/12/04 10:00:54;;;;;;;;;0.60;0.60;;;;;3.46;64.72;99186.53;5037246;28;8882;-91
2023/12/04 10:03:22;;;;;;;;;1.00;1.00;;;;;3.47;65.03;99177.69;5037607;28;8861;-91
2023/12/04 10:05:50;;;;;;;;;1.00;0.60;;;;;3.47;64.41;99164.53;5038215;28;8994;-92
2023/12/04 10:08:18;;;;;;;;;3.00;3.00;;;;;3.47;65.13;99167.16;5037366;28;8828;-91
2023/12/04 10:10:46;;;;;;;;;0.60;0.60;;;;;3.47;64.83;99161.91;5036405;28;8987;-92
2023/12/04 10:13:14;;;;;;;;;1.80;1.80;;;;;3.49;65.28;99164.44;5036364;28;8926;-91
2023/12/04 10:16:02;;;;;;;;;2.20;2.20;;;;;3.50;65.31;99161.72;5035989;28;8986;-91
2023/12/04 10:18:30;;;;;;;;;3.00;1.00;;;;;3.54;65.06;99154.47;5036056;28;8852;-91
2023/12/04 10:20:58;;;;;;;;;1.80;1.00;;;;;3.58;65.37;99148.91;5035176;28;8998;-92
2023/12/04 10:23:27;;;;;;;;;4.00;3.60;;;;;3.62;64.75;99155.66;5035530;28;8820;-92
2023/12/04 10:25:55;;;;;;;;;1.00;1.00;;;;;3.67;64.37;99143.06;5032862;28;8860;-91
2023/12/04 10:28:24;;;;;;;;;1.00;1.00;;;;;3.71;64.65;99135.81;5033839;28;8844;-91
2023/12/04 10:30:52;;;;;;;;;1.00;1.00;;;;;3.73;64.58;99137.41;5033319;28;9637;-91
2023/12/04 10:33:21;;;;;;;;;0.60;0.00;;;;;3.75;64.28;99136.34;5037604;28;8857;-91
2023/12/04 10:35:49;;;;;;;;;2.60;1.00;;;;;3.78;64.15;99124.75;5052306;28;8851;-91
2023/12/04 10:38:17;;;;;;;;;2.60;2.60;;;;;3.81;64.71;99124.59;5051416;28;8844;-91
2023/12/04 10:40:45;;;;;;;;;0.00;0.00;;;;;3.84;64.67;99122.59;5036290;28;9007;-91
2023/12/04 10:43:13;;;;;;;;;1.00;0.00;;;;;3.87;64.69;99126.78;5035575;28;8856;-91
2023/12/04 10:45:41;;;;;;;;;1.40;0.60;;;;;3.91;64.78;99118.63;5035881;28;8860;-92
2023/12/04 10:48:10;;;;;;;;;1.00;1.00;;;;;3.96;64.84;99124.41;5035902;28;8975;-91
2023/12/04 10:50:39;;;;;;;;;1.00;1.00;;;;;4.01;64.64;99113.56;5035155;28;8848;-91
2023/12/04 10:53:07;;;;;;;;;1.00;1.00;;;;;4.03;64.28;99114.31;5035288;28;8840;-90
2023/12/04 10:55:35;;;;;;;;;1.80;1.80;;;;;4.06;64.09;99108.84;5034875;28;8974;-91
2023/12/04 10:58:03;;;;;;;;;1.00;1.00;;;;;4.05;64.53;99107.97;5035319;28;8868;-91
2023/12/04 11:00:32;;;;;;;;;1.00;1.00;;;;;4.06;64.17;99106.22;5035894;28;8841;-91
2023/12/04 11:03:00;;;;;;;;;0.00;0.00;;;;;4.06;64.14;99100.94;5035909;28;8856;-91
2023/12/04 11:05:28;;;;;;;;;0.60;0.20;;;;;4.04;64.42;99079.13;5036276;28;8840;-91
2023/12/04 11:07:56;;;;;;;;;3.00;3.00;;;;;4.03;64.00;99085.34;5035343;28;8896;-91
2023/12/04 11:10:44;;;;;;;;;2.20;2.20;;;;;4.00;64.48;99078.50;5036336;28;8869;-91
2023/12/04 11:13:12;;;;;;;;;1.00;1.00;;;;;4.01;64.52;99071.41;5036706;28;8844;-91
2023/12/04 11:15:40;;;;;;;;;3.00;2.20;;;;;4.02;64.57;99073.09;5036597;28;8852;-91
2023/12/04 11:18:09;;;;;;;;;2.20;1.40;;;;;4.03;64.50;99066.91;5036039;28;8828;-91
2023/12/04 11:20:37;;;;;;;;;1.00;1.00;;;;;4.04;65.09;99065.97;5036268;28;8869;-91
2023/12/04 11:23:06;;;;;;;;;0.60;0.60;;;;;4.04;64.67;99060.69;5036340;28;9777;-91
2023/12/04 11:25:34;;;;;;;;;3.00;3.00;;;;;4.06;64.56;99046.50;5036669;28;8856;-91
2023/12/04 11:28:02;;;;;;;;;2.20;2.20;;;;;4.06;63.86;99051.75;5036459;28;8856;-91
2023/12/04 11:30:33;;;;;;;;;3.60;2.60;;;;;4.06;64.14;99050.91;5035841;28;8864;-91
2023/12/04 11:33:01;;;;;;;;;5.40;5.40;;;;;4.06;64.74;99050.91;5034881;28;8848;-91
2023/12/04 11:35:29;;;;;;;;;1.40;1.00;;;;;4.05;64.57;99049.22;5035619;28;9515;-91
2023/12/04 11:37:57;;;;;;;;;3.60;3.00;;;;;4.03;64.71;99045.84;5033330;28;8864;-91
2023/12/04 11:40:25;;;;;;;;;1.80;1.00;;;;;3.99;64.31;99047.00;5032432;28;9607;-91
2023/12/04 11:42:53;;;;;;;;;1.40;1.40;;;;;3.96;63.78;99049.84;5015816;28;8874;-91
2023/12/04 11:45:21;;;;;;;;;5.40;4.20;;;;;3.93;64.04;99045.63;5033324;28;8859;-91
2023/12/04 11:47:49;;;;;;;;;3.40;3.40;;;;;3.92;64.51;99043.94;5032987;28;8860;-90
2023/12/04 11:50:17;;;;;;;;;2.60;1.40;;;;;3.92;64.65;99036.03;5032388;28;8865;-91
2023/12/04 11:52:46;;;;;;;;;0.20;0.20;;;;;3.93;64.13;99036.88;5031865;28;8860;-91
2023/12/04 11:55:14;;;;;;;;;1.00;0.80;;;;;3.92;63.88;99038.66;5032969;28;9211;-91